createdAt,value
2022-08-21T00:00:29.597Z,50.46
2022-08-21T00:03:00.135Z,50.44
2022-08-21T00:05:27.636Z,50.65
2022-08-21T00:07:54.971Z,50.83
2022-08-21T00:10:21.955Z,50.96
2022-08-21T00:12:49.431Z,51.00
2022-08-21T00:15:20.634Z,51.13
2022-08-21T00:17:47.385Z,50.96
2022-08-21T00:20:16.467Z,51.11
2022-08-21T00:22:43.607Z,51.09
2022-08-21T00:25:11.080Z,51.35
2022-08-21T00:27:37.874Z,51.11
2022-08-21T00:30:07.196Z,51.30
2022-08-21T00:32:34.814Z,51.28
2022-08-21T00:35:01.621Z,51.68
2022-08-21T00:37:28.184Z,51.60
2022-08-21T00:39:57.525Z,51.84
2022-08-21T00:42:24.106Z,51.71
2022-08-21T00:44:51.657Z,51.79
2022-08-21T00:47:19.842Z,52.11
2022-08-21T00:49:46.592Z,52.01
2022-08-21T00:52:22.934Z,52.01
2022-08-21T00:54:51.641Z,51.86
2022-08-21T00:57:26.773Z,51.78
2022-08-21T00:59:58.909Z,51.96
2022-08-21T01:02:25.672Z,52.42
2022-08-21T01:04:52.875Z,52.20
2022-08-21T01:07:20.954Z,52.18
2022-08-21T01:09:49.899Z,52.25
2022-08-21T01:12:16.773Z,52.18
2022-08-21T01:14:43.782Z,52.22
2022-08-21T01:17:13.551Z,52.30
2022-08-21T01:19:40.977Z,52.06
2022-08-21T01:22:08.153Z,52.05
2022-08-21T01:24:35.507Z,52.15
2022-08-21T01:27:03.785Z,52.55
2022-08-21T01:29:34.630Z,52.45
2022-08-21T01:32:06.386Z,52.22
2022-08-21T01:34:39.311Z,52.15
2022-08-21T01:37:06.592Z,52.55
2022-08-21T01:39:33.391Z,52.37
2022-08-21T01:42:00.122Z,52.40
2022-08-21T01:44:27.850Z,52.48
2022-08-21T01:46:54.974Z,52.35
2022-08-21T01:49:22.051Z,52.50
2022-08-21T01:51:48.664Z,52.30
2022-08-21T01:54:15.398Z,52.43
2022-08-21T01:56:49.498Z,52.71
2022-08-21T01:59:16.155Z,52.82
2022-08-21T02:01:42.733Z,52.85
2022-08-21T02:04:11.887Z,52.65
2022-08-21T02:06:38.639Z,52.49
2022-08-21T02:09:07.380Z,52.60
2022-08-21T02:11:34.792Z,52.80
2022-08-21T02:14:05.782Z,52.52
2022-08-21T02:16:32.412Z,52.49
2022-08-21T02:18:59.927Z,52.95
2022-08-21T02:21:26.810Z,52.91
2022-08-21T02:23:58.502Z,52.74
2022-08-21T02:26:25.383Z,52.60
2022-08-21T02:28:52.202Z,53.05
2022-08-21T02:31:18.783Z,52.94
2022-08-21T02:33:45.481Z,53.00
2022-08-21T02:36:12.534Z,52.67
2022-08-21T02:38:41.529Z,52.83
2022-08-21T02:41:14.100Z,53.07
2022-08-21T02:43:41.658Z,53.24
2022-08-21T02:46:10.088Z,53.01
2022-08-21T02:48:36.969Z,53.07
2022-08-21T02:51:11.750Z,53.22
2022-08-21T02:53:41.262Z,53.17
2022-08-21T02:56:11.853Z,53.12
2022-08-21T02:58:42.810Z,53.42
2022-08-21T03:01:11.266Z,53.48
2022-08-21T03:03:44.658Z,53.31
2022-08-21T03:06:13.943Z,53.37
2022-08-21T03:08:40.795Z,53.24
2022-08-21T03:11:08.667Z,53.15
2022-08-21T03:13:40.423Z,53.50
2022-08-21T03:16:09.994Z,53.22
2022-08-21T03:18:37.431Z,53.47
2022-08-21T03:21:05.089Z,53.12
2022-08-21T03:23:32.773Z,53.38
2022-08-21T03:25:59.803Z,53.26
2022-08-21T03:28:26.718Z,53.04
2022-08-21T03:30:53.831Z,53.28
2022-08-21T03:33:25.194Z,53.32
2022-08-21T03:36:05.344Z,52.95
2022-08-21T03:38:34.214Z,53.01
2022-08-21T03:41:02.034Z,52.90
2022-08-21T03:43:32.678Z,52.95
2022-08-21T03:46:02.208Z,52.94
2022-08-21T03:48:28.800Z,53.11
2022-08-21T03:50:55.665Z,53.11
2022-08-21T03:53:26.683Z,53.08
2022-08-21T03:55:53.565Z,53.42
2022-08-21T03:58:23.719Z,53.27
2022-08-21T04:00:56.539Z,53.40
2022-08-21T04:03:27.626Z,53.47
2022-08-21T04:05:54.240Z,53.40
2022-08-21T04:08:20.936Z,53.95
2022-08-21T04:10:50.896Z,53.84
2022-08-21T04:13:19.174Z,53.88
2022-08-21T04:15:45.771Z,54.13
2022-08-21T04:18:12.664Z,54.05
2022-08-21T04:20:40.522Z,54.33
2022-08-21T04:23:11.502Z,54.55
2022-08-21T04:25:38.091Z,54.24
2022-08-21T04:28:04.991Z,54.71
2022-08-21T04:30:31.713Z,54.94
2022-08-21T04:32:59.429Z,54.43
2022-08-21T04:35:28.968Z,54.65
2022-08-21T04:37:56.026Z,54.70
2022-08-21T04:40:25.727Z,54.79
2022-08-21T04:43:21.534Z,55.38
2022-08-21T04:45:50.074Z,55.32
2022-08-21T04:48:19.911Z,55.14
2022-08-21T04:50:52.364Z,55.48
2022-08-21T04:53:38.523Z,55.38
2022-08-21T04:56:09.524Z,55.35
2022-08-21T04:58:38.245Z,55.65
2022-08-21T05:01:07.726Z,55.73
2022-08-21T05:03:37.655Z,55.68
2022-08-21T05:06:11.363Z,55.69
2022-08-21T05:08:39.316Z,55.68
2022-08-21T05:11:06.624Z,55.80
2022-08-21T05:13:37.914Z,55.78
2022-08-21T05:16:04.680Z,55.89
2022-08-21T05:18:31.238Z,55.55
2022-08-21T05:20:58.051Z,55.75
2022-08-21T05:23:26.497Z,55.82
2022-08-21T05:25:54.272Z,55.92
2022-08-21T05:28:20.833Z,55.91
2022-08-21T05:30:47.635Z,55.94
2022-08-21T05:33:16.123Z,56.03
2022-08-21T05:35:42.691Z,56.12
2022-08-21T05:38:17.857Z,56.10
2022-08-21T05:40:46.191Z,56.27
2022-08-21T05:43:14.141Z,56.71
2022-08-21T05:45:42.625Z,56.49
2022-08-21T05:48:21.544Z,56.97
2022-08-21T05:50:50.308Z,57.04
2022-08-21T05:53:22.098Z,56.88
2022-08-21T05:55:49.253Z,56.79
2022-08-21T05:58:18.998Z,56.95
2022-08-21T06:00:48.286Z,57.26
2022-08-21T06:03:25.172Z,57.16
2022-08-21T06:05:53.274Z,57.44
2022-08-21T06:08:21.152Z,57.85
2022-08-21T06:10:49.318Z,58.00
2022-08-21T06:13:21.811Z,57.71
2022-08-21T06:15:49.433Z,57.73
2022-08-21T06:18:16.838Z,58.12
2022-08-21T06:20:44.130Z,58.29
2022-08-21T06:23:12.561Z,58.23
2022-08-21T06:25:39.098Z,58.07
2022-08-21T06:28:08.605Z,58.31
2022-08-21T06:30:37.060Z,58.13
2022-08-21T06:33:07.861Z,58.37
2022-08-21T06:35:35.548Z,58.13
2022-08-21T06:38:02.192Z,57.92
2022-08-21T06:40:30.009Z,58.08
2022-08-21T06:42:58.639Z,57.74
2022-08-21T06:45:25.621Z,57.62
2022-08-21T06:47:54.947Z,57.86
2022-08-21T06:50:21.437Z,57.70
2022-08-21T06:52:48.025Z,57.37
2022-08-21T06:55:22.309Z,57.18
2022-08-21T06:57:52.551Z,57.27
2022-08-21T07:00:20.346Z,57.04
2022-08-21T07:02:46.945Z,56.96
2022-08-21T07:05:17.993Z,57.14
2022-08-21T07:07:45.403Z,56.76
2022-08-21T07:10:22.009Z,56.77
2022-08-21T07:12:49.599Z,56.08
2022-08-21T07:15:18.087Z,55.72
2022-08-21T07:17:44.693Z,55.66
2022-08-21T07:20:11.355Z,55.55
2022-08-21T07:22:41.199Z,55.71
2022-08-21T07:25:08.411Z,55.41
2022-08-21T07:27:34.998Z,55.41
2022-08-21T07:30:01.910Z,54.92
2022-08-21T07:32:28.474Z,55.05
2022-08-21T07:34:56.547Z,54.92
2022-08-21T07:37:23.249Z,54.35
2022-08-21T07:39:50.006Z,54.41
2022-08-21T07:42:17.941Z,54.18
2022-08-21T07:44:45.335Z,53.96
2022-08-21T07:47:11.986Z,53.88
2022-08-21T07:49:38.765Z,53.50
2022-08-21T07:52:05.350Z,53.50
2022-08-21T07:54:34.429Z,53.28
2022-08-21T07:57:02.068Z,53.30
2022-08-21T07:59:29.210Z,53.10
2022-08-21T08:01:55.942Z,52.95
2022-08-21T08:04:26.711Z,52.97
2022-08-21T08:06:53.700Z,52.72
2022-08-21T08:09:20.730Z,52.62
2022-08-21T08:11:47.364Z,52.39
2022-08-21T08:14:18.457Z,52.43
2022-08-21T08:16:45.262Z,52.61
2022-08-21T08:19:11.793Z,52.41
2022-08-21T08:21:39.292Z,51.98
2022-08-21T08:24:18.758Z,52.09
2022-08-21T08:26:46.810Z,51.79
2022-08-21T08:29:20.426Z,51.58
2022-08-21T08:31:46.945Z,51.38
2022-08-21T08:34:25.474Z,51.12
2022-08-21T08:36:52.383Z,50.77
2022-08-21T08:39:26.747Z,50.71
2022-08-21T08:42:04.964Z,49.81
2022-08-21T08:44:58.570Z,50.22
2022-08-21T08:47:27.386Z,49.95
2022-08-21T08:50:00.952Z,49.79
2022-08-21T08:52:37.308Z,49.29
2022-08-21T08:55:15.284Z,49.43
2022-08-21T08:57:46.511Z,49.46
2022-08-21T09:00:20.153Z,48.98
2022-08-21T09:02:47.445Z,49.06
2022-08-21T09:05:27.901Z,48.74
2022-08-21T09:08:19.406Z,48.57
2022-08-21T09:11:02.075Z,47.84
2022-08-21T09:13:56.231Z,47.75
2022-08-21T09:17:15.637Z,47.50
2022-08-21T09:20:49.865Z,47.51
2022-08-21T09:23:35.796Z,46.97
2022-08-21T09:26:14.239Z,46.64
2022-08-21T09:28:43.879Z,46.73
2022-08-21T09:31:24.435Z,46.44
2022-08-21T09:34:00.917Z,46.08
2022-08-21T09:36:35.122Z,46.15
2022-08-21T09:39:01.741Z,45.68
2022-08-21T09:41:32.081Z,45.61
2022-08-21T09:43:59.941Z,45.60
2022-08-21T09:46:28.641Z,45.39
2022-08-21T09:48:59.913Z,45.35
2022-08-21T09:51:37.684Z,45.23
2022-08-21T09:54:08.399Z,45.05
2022-08-21T09:56:54.658Z,44.60
2022-08-21T09:59:36.758Z,44.31
2022-08-21T10:02:32.749Z,43.89
2022-08-21T10:05:01.296Z,43.77
2022-08-21T10:07:31.187Z,43.52
2022-08-21T10:10:15.712Z,42.77
2022-08-21T10:13:18.770Z,42.62
2022-08-21T10:16:00.679Z,42.29
2022-08-21T10:18:36.482Z,42.31
2022-08-21T10:21:22.718Z,42.20
2022-08-21T10:24:31.750Z,42.25
2022-08-21T10:27:04.615Z,42.09
2022-08-21T10:29:40.697Z,41.87
2022-08-21T10:32:26.350Z,41.91
2022-08-21T10:35:14.441Z,41.39
2022-08-21T10:38:10.543Z,41.38
2022-08-21T10:41:02.049Z,41.39
2022-08-21T10:43:56.754Z,40.64
2022-08-21T10:46:37.415Z,40.55
2022-08-21T10:49:21.565Z,40.40
2022-08-21T10:51:57.137Z,40.23
2022-08-21T10:54:47.549Z,39.96
2022-08-21T10:57:32.288Z,40.12
2022-08-21T11:00:13.219Z,39.73
2022-08-21T11:02:47.255Z,39.86
2022-08-21T11:05:20.385Z,39.49
2022-08-21T11:07:52.658Z,38.94
2022-08-21T11:10:59.962Z,38.95
2022-08-21T11:13:49.752Z,39.02
2022-08-21T11:16:46.344Z,38.62
2022-08-21T11:19:36.036Z,38.62
2022-08-21T11:22:32.683Z,38.50
2022-08-21T11:25:16.767Z,38.41
2022-08-21T11:27:53.537Z,38.50
2022-08-21T11:30:20.138Z,38.25
2022-08-21T11:32:51.315Z,37.78
2022-08-21T11:35:33.447Z,37.68
2022-08-21T11:38:38.748Z,37.51
2022-08-21T11:41:20.118Z,37.79
2022-08-21T11:44:03.439Z,37.57
2022-08-21T11:46:34.579Z,37.67
2022-08-21T11:49:17.242Z,37.49
2022-08-21T11:52:17.365Z,37.03
2022-08-21T11:55:03.915Z,37.17
2022-08-21T11:57:40.177Z,37.18
2022-08-21T12:00:14.667Z,36.97
2022-08-21T12:02:47.374Z,37.05
2022-08-21T12:05:39.318Z,36.98
2022-08-21T12:08:10.941Z,36.93
2022-08-21T12:11:01.018Z,37.15
2022-08-21T12:13:36.724Z,36.72
2022-08-21T12:16:16.709Z,36.71
2022-08-21T12:18:44.216Z,36.77
2022-08-21T12:21:26.855Z,36.32
2022-08-21T12:24:03.466Z,36.12
2022-08-21T12:26:36.623Z,35.95
2022-08-21T12:29:12.295Z,35.89
2022-08-21T12:31:50.446Z,35.51
2022-08-21T12:34:18.569Z,35.78
2022-08-21T12:36:54.567Z,35.50
2022-08-21T12:39:27.810Z,35.76
2022-08-21T12:42:02.271Z,35.56
2022-08-21T12:44:36.322Z,35.34
2022-08-21T12:47:15.032Z,35.41
2022-08-21T12:50:04.855Z,35.16
2022-08-21T12:52:39.354Z,35.10
2022-08-21T12:55:16.631Z,34.99
2022-08-21T12:57:43.510Z,35.09
2022-08-21T13:00:14.142Z,34.52
2022-08-21T13:02:48.133Z,34.11
2022-08-21T13:05:21.357Z,34.08
2022-08-21T13:07:49.820Z,33.97
2022-08-21T13:10:26.400Z,34.38
2022-08-21T13:12:58.923Z,34.01
2022-08-21T13:15:34.959Z,34.08
2022-08-21T13:18:05.683Z,33.58
2022-08-21T13:20:39.177Z,33.13
2022-08-21T13:23:09.687Z,33.21
2022-08-21T13:25:38.507Z,32.90
2022-08-21T13:28:10.026Z,32.52
2022-08-21T13:30:41.149Z,32.56
2022-08-21T13:33:14.864Z,32.03
2022-08-21T13:36:04.884Z,32.09
2022-08-21T13:38:33.883Z,31.84
2022-08-21T13:41:05.767Z,31.89
2022-08-21T13:43:37.575Z,31.92
2022-08-21T13:46:11.576Z,31.54
2022-08-21T13:48:39.343Z,31.67
2022-08-21T13:51:06.325Z,31.64
2022-08-21T13:53:42.311Z,31.47
2022-08-21T13:56:09.290Z,31.46
2022-08-21T13:58:45.050Z,31.28
2022-08-21T14:01:28.504Z,30.74
2022-08-21T14:04:21.044Z,30.73
2022-08-21T14:06:48.094Z,30.88
2022-08-21T14:09:27.729Z,30.93
2022-08-21T14:11:56.806Z,30.68
2022-08-21T14:14:33.107Z,30.44
2022-08-21T14:17:24.501Z,30.78
2022-08-21T14:19:50.834Z,30.38
2022-08-21T14:22:35.731Z,30.24
2022-08-21T14:25:12.887Z,29.87
2022-08-21T14:27:50.549Z,29.84
2022-08-21T14:30:34.727Z,29.97
2022-08-21T14:33:18.246Z,29.96
2022-08-21T14:35:45.017Z,30.00
2022-08-21T14:38:17.325Z,29.78
2022-08-21T14:40:47.532Z,29.90
2022-08-21T14:43:20.022Z,30.16
2022-08-21T14:45:47.596Z,30.17
2022-08-21T14:48:14.247Z,30.31
2022-08-21T14:50:41.349Z,30.29
2022-08-21T14:53:12.110Z,30.39
2022-08-21T14:55:58.962Z,30.47
2022-08-21T14:58:26.207Z,30.28
2022-08-21T15:00:54.931Z,29.99
2022-08-21T15:03:24.720Z,30.33
2022-08-21T15:05:52.227Z,30.29
2022-08-21T15:08:19.529Z,30.42
2022-08-21T15:11:08.618Z,30.48
2022-08-21T15:13:34.887Z,30.71
2022-08-21T15:16:01.881Z,30.79
2022-08-21T15:18:30.940Z,30.56
2022-08-21T15:20:58.540Z,30.42
2022-08-21T15:23:25.812Z,30.56
2022-08-21T15:25:53.461Z,30.80
2022-08-21T15:28:22.176Z,30.94
2022-08-21T15:30:51.457Z,30.77
2022-08-21T15:33:20.144Z,31.02
2022-08-21T15:35:47.125Z,31.26
2022-08-21T15:38:14.809Z,31.06
2022-08-21T15:40:51.786Z,31.21
2022-08-21T15:43:30.197Z,31.13
2022-08-21T15:45:59.974Z,31.03
2022-08-21T15:48:26.575Z,31.15
2022-08-21T15:50:53.069Z,31.27
2022-08-21T15:53:19.664Z,30.92
2022-08-21T15:55:46.295Z,30.82
2022-08-21T15:58:16.261Z,31.06
2022-08-21T16:00:45.093Z,31.28
2022-08-21T16:03:18.873Z,31.63
2022-08-21T16:05:45.990Z,31.35
2022-08-21T16:08:12.594Z,31.63
2022-08-21T16:10:39.613Z,31.41
2022-08-21T16:13:15.903Z,31.60
2022-08-21T16:15:42.453Z,31.80
2022-08-21T16:18:09.974Z,31.56
2022-08-21T16:20:36.690Z,31.73
2022-08-21T16:23:09.523Z,31.55
2022-08-21T16:25:40.038Z,31.93
2022-08-21T16:28:12.205Z,32.03
2022-08-21T16:30:40.953Z,31.91
2022-08-21T16:33:42.532Z,32.13
2022-08-21T16:36:11.778Z,32.07
2022-08-21T16:38:39.582Z,32.08
2022-08-21T16:41:08.726Z,32.27
2022-08-21T16:43:35.604Z,32.28
2022-08-21T16:46:02.460Z,32.52
2022-08-21T16:48:31.540Z,32.48
2022-08-21T16:50:58.591Z,32.60
2022-08-21T16:53:29.659Z,32.76
2022-08-21T16:55:57.105Z,32.88
2022-08-21T16:58:27.158Z,32.97
2022-08-21T17:00:54.428Z,33.13
2022-08-21T17:03:34.318Z,33.30
2022-08-21T17:06:01.567Z,33.48
2022-08-21T17:08:28.266Z,33.35
2022-08-21T17:10:55.453Z,33.58
2022-08-21T17:13:22.808Z,33.59
2022-08-21T17:15:49.347Z,33.66
2022-08-21T17:18:19.941Z,33.98
2022-08-21T17:20:47.668Z,33.87
2022-08-21T17:23:19.670Z,34.03
2022-08-21T17:25:50.103Z,33.76
2022-08-21T17:28:21.876Z,34.03
2022-08-21T17:30:48.941Z,34.37
2022-08-21T17:33:19.669Z,34.28
2022-08-21T17:35:46.787Z,34.27
2022-08-21T17:38:14.693Z,34.51
2022-08-21T17:40:41.940Z,34.29
2022-08-21T17:43:15.064Z,34.47
2022-08-21T17:45:43.405Z,34.79
2022-08-21T17:48:10.190Z,34.92
2022-08-21T17:50:37.275Z,34.91
2022-08-21T17:53:08.108Z,34.75
2022-08-21T17:55:34.843Z,35.09
2022-08-21T17:58:02.254Z,34.95
2022-08-21T18:00:29.719Z,34.93
2022-08-21T18:03:24.845Z,34.72
2022-08-21T18:05:53.787Z,34.84
2022-08-21T18:08:20.517Z,34.83
2022-08-21T18:10:48.674Z,34.85
2022-08-21T18:13:23.628Z,35.31
2022-08-21T18:15:51.277Z,35.31
2022-08-21T18:18:18.178Z,35.21
2022-08-21T18:20:44.977Z,35.42
2022-08-21T18:23:12.936Z,35.51
2022-08-21T18:25:42.351Z,35.60
2022-08-21T18:28:08.927Z,35.74
2022-08-21T18:30:40.549Z,35.68
2022-08-21T18:33:13.718Z,35.97
2022-08-21T18:35:42.199Z,35.97
2022-08-21T18:38:09.538Z,36.19
2022-08-21T18:40:40.134Z,36.28
2022-08-21T18:43:15.715Z,36.62
2022-08-21T18:45:42.915Z,36.23
2022-08-21T18:48:12.403Z,36.82
2022-08-21T18:50:41.967Z,36.75
2022-08-21T18:53:18.355Z,36.82
2022-08-21T18:55:57.905Z,36.84
2022-08-21T18:58:32.892Z,36.92
2022-08-21T19:00:59.715Z,37.05
2022-08-21T19:03:29.545Z,37.25
2022-08-21T19:05:58.105Z,37.30
2022-08-21T19:08:28.625Z,37.20
2022-08-21T19:10:58.153Z,37.63
2022-08-21T19:13:28.345Z,37.61
2022-08-21T19:15:56.771Z,37.76
2022-08-21T19:18:28.206Z,37.87
2022-08-21T19:20:57.266Z,38.16
2022-08-21T19:23:31.311Z,38.14
2022-08-21T19:26:04.435Z,38.54
2022-08-21T19:28:40.807Z,38.60
2022-08-21T19:31:16.275Z,38.54
2022-08-21T19:33:52.674Z,38.94
2022-08-21T19:36:22.228Z,39.04
2022-08-21T19:38:48.750Z,39.02
2022-08-21T19:41:17.361Z,39.04
2022-08-21T19:43:54.582Z,39.34
2022-08-21T19:46:27.277Z,39.31
2022-08-21T19:48:55.465Z,39.39
2022-08-21T19:51:23.261Z,39.65
2022-08-21T19:53:57.062Z,39.65
2022-08-21T19:56:26.864Z,39.57
2022-08-21T19:58:53.734Z,39.99
2022-08-21T20:01:21.933Z,40.13
2022-08-21T20:03:53.817Z,40.15
2022-08-21T20:06:24.084Z,40.39
2022-08-21T20:08:51.927Z,40.46
2022-08-21T20:11:26.580Z,40.55
2022-08-21T20:13:54.505Z,40.77
2022-08-21T20:16:21.546Z,40.70
2022-08-21T20:18:48.966Z,40.51
2022-08-21T20:21:16.265Z,40.92
2022-08-21T20:23:49.077Z,40.93
2022-08-21T20:26:16.920Z,41.13
2022-08-21T20:28:44.230Z,40.81
2022-08-21T20:31:11.110Z,41.08
2022-08-21T20:33:45.205Z,41.12
2022-08-21T20:36:16.811Z,40.78
2022-08-21T20:38:44.153Z,41.10
2022-08-21T20:41:17.904Z,41.06
2022-08-21T20:43:52.710Z,41.06
2022-08-21T20:46:23.729Z,41.19
2022-08-21T20:48:51.167Z,41.34
2022-08-21T20:51:35.998Z,41.39
2022-08-21T20:54:21.113Z,41.37
2022-08-21T20:57:03.883Z,41.55
2022-08-21T20:59:33.418Z,41.47
2022-08-21T21:02:16.301Z,41.80
2022-08-21T21:05:05.699Z,41.42
2022-08-21T21:07:41.705Z,41.42
2022-08-21T21:10:15.195Z,41.43
2022-08-21T21:12:49.996Z,41.78
2022-08-21T21:15:28.250Z,41.90
2022-08-21T21:18:13.070Z,42.31
2022-08-21T21:20:53.670Z,42.35
2022-08-21T21:23:28.449Z,42.28
2022-08-21T21:26:17.813Z,42.46
2022-08-21T21:28:57.508Z,42.57
2022-08-21T21:31:28.304Z,42.98
2022-08-21T21:33:57.587Z,43.16
2022-08-21T21:36:36.856Z,43.39
2022-08-21T21:39:36.332Z,43.19
2022-08-21T21:42:38.805Z,43.25
2022-08-21T21:45:25.095Z,43.16
2022-08-21T21:48:05.441Z,43.48
2022-08-21T21:50:54.000Z,43.76
2022-08-21T21:53:40.427Z,43.83
2022-08-21T21:56:16.490Z,43.61
2022-08-21T21:59:10.856Z,43.78
2022-08-21T22:01:56.108Z,44.07
2022-08-21T22:04:55.474Z,43.87
2022-08-21T22:07:37.653Z,43.81
2022-08-21T22:10:18.602Z,44.14
2022-08-21T22:13:10.440Z,44.52
2022-08-21T22:15:37.915Z,44.17
2022-08-21T22:18:16.004Z,44.42
2022-08-21T22:20:47.060Z,44.55
2022-08-21T22:23:26.425Z,44.57
2022-08-21T22:25:59.361Z,44.97
2022-08-21T22:28:29.509Z,44.87
2022-08-21T22:31:24.423Z,44.87
2022-08-21T22:34:07.325Z,45.07
2022-08-21T22:36:47.917Z,45.17
2022-08-21T22:39:32.040Z,45.21
2022-08-21T22:42:14.605Z,45.15
2022-08-21T22:45:09.415Z,45.39
2022-08-21T22:47:44.713Z,45.04
2022-08-21T22:50:20.450Z,45.67
2022-08-21T22:52:51.894Z,45.49
2022-08-21T22:55:45.828Z,45.77
2022-08-21T22:58:18.115Z,45.86
2022-08-21T23:00:59.014Z,45.80
2022-08-21T23:06:46.517Z,45.93
2022-08-21T23:09:36.319Z,45.96
2022-08-21T23:12:31.978Z,46.45
2022-08-21T23:15:05.881Z,46.27
2022-08-21T23:18:07.651Z,46.54
2022-08-21T23:20:56.388Z,46.37
2022-08-21T23:23:27.381Z,46.75
2022-08-21T23:26:26.540Z,46.93
2022-08-21T23:29:04.919Z,46.76
2022-08-21T23:31:44.723Z,46.85
2022-08-21T23:34:28.650Z,46.85
2022-08-21T23:37:48.877Z,47.32
2022-08-21T23:44:00.843Z,47.07
2022-08-21T23:46:59.987Z,47.45
2022-08-21T23:49:48.358Z,47.19
2022-08-21T23:52:35.326Z,47.61
2022-08-21T23:55:39.141Z,47.42
2022-08-21T23:58:26.835Z,47.44
